Time;durP1;ratioP1;P1;durP2;ratioP2;P2;SDS_P1;SDS_P2;PMS_P1;PMS_P2;Temp;Humidity;BMP_temperature;BMP_pressure;BME280_temperature;BME280_humidity;BME280_pressure;Samples;Min_cycle;Max_cycle;Signal;HPM_P1;HPM_P2
2021/08/12 00:01:41;;;;;;;7.22;5.75;;;;;;;18.53;82.46;100790.22;4919468;29;20048;-79
2021/08/12 00:04:09;;;;;;;12.52;5.88;;;;;;;18.53;82.69;100790.22;4925405;29;20063;-78
2021/08/12 00:06:36;;;;;;;8.55;5.90;;;;;;;18.52;82.78;100788.50;4920060;29;20048;-80
2021/08/12 00:09:04;;;;;;;10.27;6.75;;;;;;;18.52;82.70;100784.94;4925818;29;20060;-80
2021/08/12 00:11:31;;;;;;;11.23;6.57;;;;;;;18.51;82.33;100788.59;4925765;29;20066;-80
2021/08/12 00:13:57;;;;;;;9.90;6.57;;;;;;;18.51;82.61;100786.78;4925829;29;20110;-80
2021/08/12 00:16:25;;;;;;;9.50;5.90;;;;;;;18.48;82.58;100788.81;4934248;29;20044;-81
2021/08/12 00:18:57;;;;;;;10.57;6.03;;;;;;;18.43;82.70;100781.09;4927483;29;20064;-80
2021/08/12 00:21:25;;;;;;;13.40;6.63;;;;;;;18.46;82.79;100788.06;4918031;29;20040;-80
2021/08/12 00:23:53;;;;;;;9.10;6.18;;;;;;;18.44;83.04;100782.81;4927246;29;20070;-80
2021/08/12 00:26:19;;;;;;;11.00;6.03;;;;;;;18.45;83.15;100787.22;4920118;29;20058;-80
2021/08/12 00:28:46;;;;;;;10.57;5.82;;;;;;;18.38;83.17;100774.38;4917932;29;20427;-80
2021/08/12 00:31:14;;;;;;;7.82;5.03;;;;;;;18.43;83.06;100793.66;4925630;29;20052;-80
2021/08/12 00:33:41;;;;;;;7.85;5.85;;;;;;;18.43;83.42;100791.84;4897723;29;20074;-81
2021/08/12 00:36:07;;;;;;;8.63;5.70;;;;;;;18.43;83.12;100789.16;4922586;29;20056;-80
2021/08/12 00:38:34;;;;;;;10.60;5.40;;;;;;;18.42;83.18;100792.78;4923376;29;20703;-80
2021/08/12 00:41:00;;;;;;;6.25;4.80;;;;;;;18.42;83.27;100789.25;4925705;29;20059;-80
2021/08/12 00:43:28;;;;;;;9.65;5.50;;;;;;;18.40;83.39;100794.75;4919386;29;20062;-80
2021/08/12 00:45:54;;;;;;;7.40;5.53;;;;;;;18.36;83.36;100798.63;4921211;29;20053;-80
2021/08/12 00:48:21;;;;;;;9.32;5.30;;;;;;;18.31;83.90;100799.91;4922770;29;20056;-80
2021/08/12 00:50:48;;;;;;;8.80;5.78;;;;;;;18.25;84.31;100801.25;4918161;29;20049;-80
2021/08/12 00:53:15;;;;;;;9.35;5.32;;;;;;;18.15;84.61;100784.94;4920974;29;20048;-80
2021/08/12 00:55:44;;;;;;;9.43;5.47;;;;;;;18.21;84.70;100797.06;4931064;29;20150;-81
2021/08/12 00:58:15;;;;;;;9.57;5.20;;;;;;;18.15;84.77;100792.13;4929420;29;20112;-81
2021/08/12 01:00:50;;;;;;;9.90;5.88;;;;;;;18.12;85.13;100795.03;4936493;29;20079;-81
2021/08/12 01:03:20;;;;;;;8.00;5.53;;;;;;;18.11;85.69;100793.31;4926130;29;20117;-81
2021/08/12 01:05:57;;;;;;;7.85;5.65;;;;;;;18.11;85.71;100788.81;4923372;29;20492;-80
2021/08/12 01:09:09;;;;;;;7.93;5.50;;;;;;;18.09;85.50;100796.13;4924339;29;20058;-81
2021/08/12 01:11:41;;;;;;;10.32;5.97;;;;;;;17.99;86.37;100803.09;4908532;29;20056;-79
2021/08/12 01:14:27;;;;;;;8.35;5.63;;;;;;;17.96;86.53;100805.13;4925292;29;20052;-80
2021/08/12 01:17:03;;;;;;;10.15;6.13;;;;;;;17.91;86.68;100807.31;4919154;29;20127;-80
2021/08/12 01:19:56;;;;;;;7.40;5.00;;;;;;;17.94;87.07;100809.78;4925440;29;20415;-80
2021/08/12 01:22:23;;;;;;;9.13;5.90;;;;;;;17.94;87.26;100802.59;4918983;29;20048;-80
2021/08/12 01:24:58;;;;;;;14.75;5.97;;;;;;;17.95;87.26;100803.41;4925545;29;20067;-80
2021/08/12 01:27:30;;;;;;;9.07;6.07;;;;;;;17.95;87.08;100804.28;4929354;29;20040;-80
2021/08/12 01:30:06;;;;;;;7.57;5.75;;;;;;;17.87;86.80;100794.13;4920541;29;20054;-80
2021/08/12 01:32:56;;;;;;;6.93;5.43;;;;;;;17.96;86.87;100803.31;4919211;29;20055;-80
2021/08/12 01:35:23;;;;;;;12.73;5.70;;;;;;;17.97;86.39;100802.34;4915926;29;20492;-80
2021/08/12 01:38:07;;;;;;;7.47;5.65;;;;;;;17.99;86.14;100811.13;4899331;29;20052;-81
2021/08/12 01:40:35;;;;;;;6.85;5.35;;;;;;;17.98;86.23;100803.19;4920815;29;20051;-81
2021/08/12 01:43:10;;;;;;;8.07;5.50;;;;;;;17.97;86.15;100801.47;4903074;29;20056;-80
2021/08/12 01:45:37;;;;;;;8.63;5.55;;;;;;;18.02;86.06;100802.03;4920856;29;20082;-80
2021/08/12 01:48:05;;;;;;;7.35;5.22;;;;;;;18.01;85.96;100798.50;4922898;29;20108;-80
2021/08/12 01:50:32;;;;;;;8.23;5.25;;;;;;;18.04;85.93;100798.28;4924244;29;20052;-80
2021/08/12 01:53:01;;;;;;;9.27;4.88;;;;;;;18.05;86.00;100793.78;4925402;29;20048;-80
2021/08/12 01:55:31;;;;;;;7.05;5.40;;;;;;;18.05;85.76;100783.06;4915564;29;20511;-80
2021/08/12 01:58:00;;;;;;;7.63;5.43;;;;;;;18.05;85.83;100789.28;4923365;29;20127;-80
2021/08/12 02:00:30;;;;;;;9.13;6.00;;;;;;;18.04;85.61;100787.56;4901507;29;20052;-80
2021/08/12 02:02:59;;;;;;;6.78;4.82;;;;;;;18.03;85.40;100793.88;4902902;29;20378;-80
2021/08/12 02:05:27;;;;;;;8.27;5.53;;;;;;;18.06;84.86;100792.81;4909435;29;20048;-80
2021/08/12 02:07:54;;;;;;;8.30;5.78;;;;;;;18.04;84.75;100789.38;4917893;29;20400;-80
2021/08/12 02:10:21;;;;;;;6.25;5.03;;;;;;;17.98;84.84;100779.94;4923533;29;20059;-80
2021/08/12 02:12:50;;;;;;;6.97;5.25;;;;;;;17.99;84.70;100783.47;4913128;29;20151;-80
2021/08/12 02:15:18;;;;;;;9.93;4.97;;;;;;;18.01;84.89;100778.88;4918181;29;20107;-79
2021/08/12 02:17:45;;;;;;;11.00;5.40;;;;;;;17.99;85.15;100775.44;4919175;29;20115;-79
2021/08/12 02:20:15;;;;;;;9.68;5.10;;;;;;;18.01;85.28;100782.41;4928085;29;20048;-79
2021/08/12 02:23:01;;;;;;;10.07;5.20;;;;;;;17.98;85.07;100785.31;4923083;29;20362;-79
2021/08/12 02:25:54;;;;;;;6.85;5.20;;;;;;;17.99;85.09;100783.47;4917957;29;20051;-80
2021/08/12 02:28:22;;;;;;;5.93;4.93;;;;;;;17.97;84.94;100780.91;4916275;29;20125;-79
2021/08/12 02:30:51;;;;;;;5.80;4.97;;;;;;;17.99;84.69;100770.94;4922301;29;20079;-80
2021/08/12 02:33:23;;;;;;;6.85;4.85;;;;;;;18.01;84.43;100770.84;4919853;29;20491;-80
2021/08/12 02:35:53;;;;;;;9.30;5.00;;;;;;;17.99;85.05;100773.63;4922552;29;20052;-80
2021/08/12 02:38:20;;;;;;;7.70;5.10;;;;;;;17.99;84.95;100770.94;4927587;29;20044;-80
2021/08/12 02:40:50;;;;;;;9.70;5.10;;;;;;;17.95;84.92;100760.53;4923678;29;20060;-80
2021/08/12 02:43:19;;;;;;;6.65;5.00;;;;;;;17.90;85.37;100763.56;4936296;29;20052;-80
2021/08/12 02:45:49;;;;;;;9.88;5.55;;;;;;;17.83;85.37;100763.13;4927414;29;20055;-80
2021/08/12 02:48:28;;;;;;;8.63;5.03;;;;;;;17.76;85.74;100758.34;4924426;29;20070;-80
2021/08/12 02:50:57;;;;;;;6.75;4.53;;;;;;;17.73;86.18;100756.72;4919448;29;20066;-80
2021/08/12 02:53:24;;;;;;;7.63;5.40;;;;;;;17.74;86.46;100766.50;4916708;29;20047;-80
2021/08/12 02:55:52;;;;;;;7.00;5.40;;;;;;;17.73;86.48;100762.09;4916620;29;20049;-80
2021/08/12 02:58:20;;;;;;;7.18;5.20;;;;;;;17.70;85.90;100751.59;4918343;29;20071;-80
2021/08/12 03:00:47;;;;;;;6.85;5.00;;;;;;;17.65;86.44;100756.41;4926911;29;20062;-80
2021/08/12 03:03:17;;;;;;;8.93;5.45;;;;;;;17.63;86.75;100757.47;4917990;29;20087;-80
2021/08/12 03:05:45;;;;;;;8.25;5.80;;;;;;;17.61;86.59;100762.94;4904206;29;20147;-81
2021/08/12 03:08:15;;;;;;;8.65;5.28;;;;;;;17.55;86.88;100763.34;4938011;29;20077;-80
2021/08/12 03:10:42;;;;;;;6.95;5.15;;;;;;;17.58;87.01;100767.63;4924616;29;20115;-80
2021/08/12 03:13:09;;;;;;;7.30;4.55;;;;;;;17.56;87.05;100765.06;4937333;29;20108;-80
2021/08/12 03:15:38;;;;;;;7.05;5.60;;;;;;;17.57;87.04;100761.44;4926274;29;20075;-80
2021/08/12 03:18:06;;;;;;;8.30;5.43;;;;;;;17.58;86.89;100764.97;4921689;29;20048;-80
2021/08/12 03:20:33;;;;;;;9.27;5.50;;;;;;;17.54;87.00;100767.00;4928139;29;20051;-80
2021/08/12 03:23:00;;;;;;;7.57;5.20;;;;;;;17.51;87.19;100761.84;4911184;29;20048;-80
2021/08/12 03:25:27;;;;;;;8.45;5.72;;;;;;;17.47;87.17;100765.72;4905737;29;20044;-80
2021/08/12 03:27:53;;;;;;;8.48;6.22;;;;;;;17.39;87.12;100762.72;4922010;29;20585;-80
2021/08/12 03:30:21;;;;;;;10.82;5.20;;;;;;;17.33;87.34;100752.41;4919518;29;20119;-80
2021/08/12 03:32:48;;;;;;;9.10;5.43;;;;;;;17.25;87.56;100755.63;4919731;29;20058;-80
2021/08/12 03:35:16;;;;;;;7.72;5.53;;;;;;;17.25;88.05;100762.81;4929531;29;20511;-81
2021/08/12 03:37:43;;;;;;;8.43;5.70;;;;;;;17.19;88.17;100759.56;4932661;29;20058;-80
2021/08/12 03:40:12;;;;;;;7.80;5.38;;;;;;;17.05;88.21;100743.63;4925077;29;20048;-80
2021/08/12 03:42:39;;;;;;;11.25;6.07;;;;;;;17.15;88.50;100766.13;4915948;29;20063;-80
2021/08/12 03:45:06;;;;;;;7.97;5.45;;;;;;;17.16;88.69;100769.63;4920612;29;20248;-80
2021/08/12 03:47:34;;;;;;;16.02;6.07;;;;;;;17.11;88.66;100769.97;4929519;29;20080;-80
2021/08/12 03:50:01;;;;;;;6.70;5.30;;;;;;;17.06;88.69;100774.75;4927968;29;20077;-80
2021/08/12 03:52:29;;;;;;;9.65;5.60;;;;;;;17.01;88.80;100770.66;4923986;29;20056;-80
2021/08/12 03:54:55;;;;;;;8.38;5.80;;;;;;;16.92;89.58;100769.50;4919366;29;20048;-80
2021/08/12 03:57:22;;;;;;;10.07;6.00;;;;;;;16.81;90.07;100762.19;4932583;29;20138;-80
2021/08/12 03:59:49;;;;;;;10.18;6.03;;;;;;;16.84;90.63;100777.19;4927126;29;20054;-80
2021/08/12 04:02:15;;;;;;;9.27;6.03;;;;;;;16.81;90.63;100780.91;4928773;29;20051;-80
2021/08/12 04:04:42;;;;;;;8.68;5.72;;;;;;;16.84;90.82;100778.00;4896885;29;20059;-80
2021/08/12 04:07:09;;;;;;;8.57;5.63;;;;;;;16.86;90.71;100780.59;4931258;29;20059;-80
2021/08/12 04:09:35;;;;;;;9.57;6.20;;;;;;;16.79;90.56;100774.81;4912989;29;20067;-81
2021/08/12 04:12:03;;;;;;;8.88;6.05;;;;;;;16.75;91.29;100783.13;4918976;29;20048;-81
2021/08/12 04:14:30;;;;;;;7.78;5.90;;;;;;;16.70;91.64;100777.22;4915764;29;20052;-80
2021/08/12 04:16:56;;;;;;;9.40;6.25;;;;;;;16.74;92.11;100781.41;4913218;29;20131;-80
2021/08/12 04:19:25;;;;;;;8.07;5.80;;;;;;;16.78;91.82;100782.94;4926157;29;20063;-80
2021/08/12 04:21:52;;;;;;;8.48;6.18;;;;;;;16.83;91.72;100786.16;4913395;29;20059;-80
2021/08/12 04:24:18;;;;;;;11.07;6.80;;;;;;;16.81;91.31;100788.09;4927154;29;20058;-80
2021/08/12 04:26:45;;;;;;;9.68;6.88;;;;;;;16.81;91.80;100793.44;4926429;29;20427;-80
2021/08/12 04:29:13;;;;;;;7.97;6.63;;;;;;;16.76;91.90;100790.19;4924904;29;20103;-80
2021/08/12 04:31:40;;;;;;;10.23;6.05;;;;;;;16.77;92.27;100799.94;4919175;29;20059;-80
2021/08/12 04:34:07;;;;;;;8.85;6.43;;;;;;;16.79;92.25;100792.66;4931265;29;20066;-80
2021/08/12 04:36:33;;;;;;;8.63;6.45;;;;;;;16.80;92.38;100791.72;4923030;29;20051;-80
2021/08/12 04:39:00;;;;;;;9.70;6.40;;;;;;;16.78;92.53;100786.47;4943102;29;20086;-79
2021/08/12 04:41:27;;;;;;;9.32;6.25;;;;;;;16.83;92.45;100794.19;4937804;29;20055;-79
2021/08/12 04:43:53;;;;;;;8.32;5.90;;;;;;;16.90;92.34;100798.16;4944013;29;20147;-79
2021/08/12 04:46:20;;;;;;;8.02;5.78;;;;;;;16.98;91.76;100793.16;4931673;29;20112;-79
2021/08/12 04:48:49;;;;;;;16.95;6.38;;;;;;;17.05;91.30;100789.09;4940035;29;20044;-80
2021/08/12 04:51:16;;;;;;;8.95;5.93;;;;;;;17.14;91.04;100798.34;4931008;29;20084;-79
2021/08/12 04:53:42;;;;;;;8.93;6.40;;;;;;;17.21;90.62;100807.66;4946636;29;20066;-79
2021/08/12 04:56:10;;;;;;;10.88;6.57;;;;;;;17.22;89.86;100804.00;4951340;28;20036;-80
2021/08/12 04:58:37;;;;;;;13.63;6.43;;;;;;;17.29;89.68;100816.03;4948057;29;20037;-80
2021/08/12 05:01:04;;;;;;;11.57;6.35;;;;;;;17.41;89.48;100811.66;4923571;29;20048;-80
2021/08/12 05:03:31;;;;;;;14.60;6.15;;;;;;;17.50;89.19;100819.91;4948013;28;20068;-80
2021/08/12 05:06:08;;;;;;;10.05;6.55;;;;;;;17.58;87.66;100819.38;4950463;28;20099;-80
2021/08/12 05:08:35;;;;;;;8.02;6.07;;;;;;;17.60;87.66;100814.78;4937709;28;20087;-81
2021/08/12 05:11:06;;;;;;;8.90;6.18;;;;;;;17.62;88.03;100807.50;4932594;29;20068;-79
2021/08/12 05:13:36;;;;;;;10.00;6.30;;;;;;;17.70;87.65;100817.69;4947241;29;20080;-79
2021/08/12 05:16:03;;;;;;;11.25;6.13;;;;;;;17.74;87.23;100806.66;4946259;29;20128;-79
2021/08/12 05:18:30;;;;;;;8.90;5.90;;;;;;;17.79;86.81;100815.22;4939206;29;20056;-80
2021/08/12 05:20:56;;;;;;;7.30;5.70;;;;;;;17.84;87.02;100812.22;4941169;28;20070;-82
2021/08/12 05:23:23;;;;;;;8.50;5.80;;;;;;;17.95;86.73;100815.00;4945337;28;20036;-81
2021/08/12 05:25:51;;;;;;;6.93;5.30;;;;;;;18.07;85.99;100818.66;4939053;29;20036;-79
2021/08/12 05:28:18;;;;;;;8.48;5.53;;;;;;;18.17;85.21;100814.31;4932270;29;20056;-79
2021/08/12 05:30:45;;;;;;;11.57;5.25;;;;;;;18.31;85.14;100829.41;4921747;29;20130;-79
2021/08/12 05:33:12;;;;;;;7.65;5.60;;;;;;;18.44;84.12;100828.41;4932459;29;20072;-79
2021/08/12 05:35:38;;;;;;;11.45;6.03;;;;;;;18.53;82.49;100827.75;4925431;29;20055;-79
2021/08/12 05:38:05;;;;;;;7.82;5.55;;;;;;;18.62;82.13;100820.03;4922379;29;20140;-79
2021/08/12 05:40:31;;;;;;;8.63;5.40;;;;;;;18.71;81.62;100820.22;4917978;29;20049;-81
2021/08/12 05:42:58;;;;;;;8.90;5.55;;;;;;;18.75;80.91;100808.25;4916510;29;20079;-80
2021/08/12 05:45:25;;;;;;;11.38;5.43;;;;;;;18.78;80.36;100804.50;4933904;29;20097;-79
2021/08/12 05:47:52;;;;;;;8.88;5.50;;;;;;;18.82;79.99;100806.84;4935479;29;20060;-80
2021/08/12 05:50:19;;;;;;;8.27;5.45;;;;;;;18.87;79.23;100802.00;4936379;29;20082;-80
2021/08/12 05:52:46;;;;;;;7.68;5.60;;;;;;;18.88;79.58;100805.53;4933846;29;20083;-81
2021/08/12 05:55:13;;;;;;;7.45;5.80;;;;;;;18.87;79.61;100809.19;4930785;29;20048;-81
2021/08/12 05:57:40;;;;;;;8.45;5.50;;;;;;;18.89;79.52;100801.84;4923449;29;20704;-81
2021/08/12 06:00:11;;;;;;;8.88;5.28;;;;;;;18.89;79.48;100800.03;4927298;29;20051;-81
2021/08/12 06:02:38;;;;;;;6.70;5.38;;;;;;;18.93;79.40;100800.66;4924658;29;20119;-81
2021/08/12 06:05:06;;;;;;;8.85;5.28;;;;;;;18.98;79.50;100795.81;4915732;29;20488;-88
2021/08/12 06:07:33;;;;;;;8.68;5.18;;;;;;;19.09;79.38;100803.06;4918656;29;20084;-82
2021/08/12 06:10:00;;;;;;;8.27;5.65;;;;;;;19.18;78.68;100800.53;4900854;29;20087;-83
2021/08/12 06:12:29;;;;;;;7.43;5.50;;;;;;;19.33;78.64;100805.72;4915778;29;20060;-85
2021/08/12 06:14:56;;;;;;;8.33;5.70;;;;;;;19.45;78.51;100812.81;4909241;29;20146;-84
2021/08/12 06:17:24;;;;;;;6.93;5.65;;;;;;;19.58;78.52;100813.59;4920918;29;21131;-87
2021/08/12 06:19:50;;;;;;;12.15;5.35;;;;;;;19.66;77.49;100808.50;4921947;29;20078;-88
2021/08/12 06:22:19;;;;;;;10.38;5.15;;;;;;;19.78;76.90;100812.03;4922073;29;20044;-85
2021/08/12 06:24:46;;;;;;;10.32;5.05;;;;;;;19.88;76.38;100813.88;4920950;29;20072;-88
2021/08/12 06:27:13;;;;;;;13.25;5.57;;;;;;;20.08;76.47;100814.13;4921795;29;20051;-87
2021/08/12 06:29:44;;;;;;;9.32;4.68;;;;;;;20.39;76.05;100808.03;4906028;29;20052;-86
2021/08/12 06:32:19;;;;;;;8.05;4.88;;;;;;;20.68;74.50;100813.69;4882008;29;20116;-86
2021/08/12 06:34:47;;;;;;;6.20;4.80;;;;;;;20.94;73.72;100811.53;4926727;29;20131;-86
2021/08/12 06:37:13;;;;;;;7.30;5.03;;;;;;;21.38;71.49;100810.50;4933899;29;20050;-89
2021/08/12 06:39:41;;;;;;;8.65;5.32;;;;;;;21.69;68.94;100816.81;4933948;29;20033;-88
2021/08/12 06:42:10;;;;;;;9.48;5.20;;;;;;;21.97;67.96;100809.84;4922632;29;20115;-89
2021/08/12 06:44:37;;;;;;;12.10;5.65;;;;;;;22.24;66.65;100820.06;4935681;29;20056;-90
2021/08/12 06:47:04;;;;;;;8.65;5.88;;;;;;;22.44;63.74;100816.44;4934756;29;20107;-90
2021/08/12 06:49:32;;;;;;;10.05;5.50;;;;;;;22.43;63.20;100816.59;4934448;29;20032;-90
2021/08/12 06:51:59;;;;;;;7.70;5.20;;;;;;;22.31;62.11;100813.16;4939453;29;20060;-87
2021/08/12 06:54:31;;;;;;;10.45;6.35;;;;;;;22.03;63.04;100830.94;4931009;29;20059;-88
2021/08/12 06:56:58;;;;;;;9.75;6.03;;;;;;;21.78;63.34;100821.41;4930640;29;20112;-88
2021/08/12 06:59:24;;;;;;;9.98;6.45;;;;;;;21.69;64.89;100819.50;4939995;29;20112;-88
2021/08/12 07:01:53;;;;;;;11.18;5.93;;;;;;;21.68;64.76;100826.75;4918213;29;20059;-89
2021/08/12 07:04:21;;;;;;;10.68;5.20;;;;;;;21.67;66.46;100824.19;4926776;29;20044;-86
2021/08/12 07:06:51;;;;;;;9.23;5.15;;;;;;;21.85;67.05;100822.56;4931536;29;20116;-88
2021/08/12 07:09:26;;;;;;;9.60;5.05;;;;;;;21.96;66.18;100811.69;4926610;29;20048;-88
2021/08/12 07:11:54;;;;;;;10.20;5.20;;;;;;;22.08;63.93;100798.16;4923922;29;20066;-88
2021/08/12 07:14:23;;;;;;;11.60;5.25;;;;;;;22.41;63.01;100800.53;4935558;29;20510;-87
2021/08/12 07:16:51;;;;;;;10.02;5.47;;;;;;;22.71;60.92;100805.84;4917920;29;20071;-88
2021/08/12 07:19:18;;;;;;;10.25;5.82;;;;;;;22.90;60.45;100799.66;4932357;29;20048;-87
2021/08/12 07:21:45;;;;;;;8.10;5.20;;;;;;;23.16;59.68;100801.78;4931886;29;20051;-88
2021/08/12 07:24:14;;;;;;;9.88;5.43;;;;;;;23.20;58.35;100801.34;4927879;29;20048;-87
2021/08/12 07:26:53;;;;;;;11.45;5.55;;;;;;;23.21;58.54;100811.16;4929738;29;20051;-88
2021/08/12 07:29:21;;;;;;;8.73;5.47;;;;;;;23.14;58.51;100810.00;4928630;29;20130;-89
2021/08/12 07:31:54;;;;;;;10.23;5.60;;;;;;;23.06;59.68;100813.44;4925564;29;20119;-88
2021/08/12 07:34:22;;;;;;;8.07;5.60;;;;;;;23.02;60.17;100803.91;4931837;29;20068;-89
2021/08/12 07:36:52;;;;;;;8.88;5.70;;;;;;;22.96;60.25;100796.41;4936653;29;20086;-88
2021/08/12 07:39:35;;;;;;;11.40;5.70;;;;;;;22.98;59.19;100793.56;4919875;29;20159;-89
2021/08/12 07:42:26;;;;;;;7.95;5.20;;;;;;;23.00;60.37;100802.34;4916893;29;20440;-81
2021/08/12 07:44:53;;;;;;;9.60;5.63;;;;;;;23.25;60.56;100800.94;4920022;29;20044;-80
2021/08/12 07:47:22;;;;;;;9.77;5.63;;;;;;;23.39;59.01;100804.03;4915785;29;20036;-81
2021/08/12 07:49:49;;;;;;;8.98;5.63;;;;;;;23.55;58.22;100799.91;4933301;29;20108;-81
2021/08/12 07:52:16;;;;;;;8.85;5.38;;;;;;;23.72;57.50;100807.28;4920285;29;20111;-80
2021/08/12 07:54:48;;;;;;;9.00;6.03;;;;;;;23.92;57.48;100803.53;4916409;29;20075;-80
2021/08/12 07:57:15;;;;;;;11.20;6.03;;;;;;;23.99;57.03;100807.31;4921257;29;20075;-80
2021/08/12 07:59:42;;;;;;;11.85;5.88;;;;;;;24.05;56.14;100812.16;4918739;29;20063;-81
2021/08/12 08:02:08;;;;;;;10.88;5.72;;;;;;;24.28;57.24;100815.34;4922946;29;20138;-80
2021/08/12 08:04:35;;;;;;;9.57;5.55;;;;;;;24.41;56.23;100810.41;4924422;29;20048;-80
2021/08/12 08:07:05;;;;;;;14.50;5.10;;;;;;;24.58;55.84;100808.75;4920565;29;20056;-80
2021/08/12 08:09:32;;;;;;;12.32;5.43;;;;;;;24.71;54.54;100817.34;4919221;29;20053;-81
2021/08/12 08:12:00;;;;;;;7.75;5.57;;;;;;;24.72;54.98;100810.94;4923456;29;20052;-80
2021/08/12 08:14:28;;;;;;;8.80;5.50;;;;;;;24.81;54.69;100815.44;4909592;29;20076;-81
2021/08/12 08:16:56;;;;;;;9.75;5.60;;;;;;;24.93;54.51;100820.63;4922340;29;20076;-81
2021/08/12 08:19:23;;;;;;;9.00;5.65;;;;;;;25.01;54.27;100824.31;4927860;29;20047;-81
2021/08/12 08:21:51;;;;;;;11.93;5.47;;;;;;;25.00;54.29;100817.19;4919792;29;20131;-80
2021/08/12 08:24:17;;;;;;;12.50;5.95;;;;;;;24.99;54.04;100820.06;4918695;29;20048;-80
2021/08/12 08:26:44;;;;;;;10.40;5.40;;;;;;;24.86;54.39;100822.28;4919808;29;20052;-80
2021/08/12 08:29:11;;;;;;;11.02;6.00;;;;;;;24.77;53.74;100814.03;4929229;29;20055;-80
2021/08/12 08:31:37;;;;;;;12.85;5.60;;;;;;;24.76;54.72;100812.34;4914359;29;20497;-81
2021/08/12 08:34:06;;;;;;;12.00;6.00;;;;;;;24.75;53.89;100817.91;4915726;29;20052;-81
2021/08/12 08:36:33;;;;;;;11.98;5.50;;;;;;;24.89;55.60;100813.81;4914808;29;20052;-81
2021/08/12 08:39:01;;;;;;;12.55;5.53;;;;;;;25.10;54.50;100806.28;4918330;29;20051;-81
2021/08/12 08:41:28;;;;;;;7.15;5.00;;;;;;;25.13;53.15;100811.38;4918725;29;20071;-81
2021/08/12 08:43:55;;;;;;;10.15;5.40;;;;;;;25.10;52.54;100807.13;4914580;29;20052;-81
2021/08/12 08:46:23;;;;;;;10.80;5.47;;;;;;;25.09;53.73;100809.97;4940036;29;20057;-81
2021/08/12 08:48:55;;;;;;;9.20;5.03;;;;;;;25.28;53.05;100808.97;4920953;29;22342;-81
2021/08/12 08:51:22;;;;;;;9.65;5.70;;;;;;;25.34;51.75;100813.78;4933171;29;20124;-79
2021/08/12 08:53:50;;;;;;;7.72;5.10;;;;;;;25.20;52.10;100811.59;4930231;29;20052;-80
2021/08/12 08:56:18;;;;;;;8.15;5.68;;;;;;;25.03;52.45;100813.31;4922400;29;20044;-80
2021/08/12 08:58:46;;;;;;;8.07;5.50;;;;;;;25.11;53.01;100816.09;4925579;29;20126;-81
2021/08/12 09:01:12;;;;;;;11.20;5.53;;;;;;;25.17;52.94;100810.94;4939625;29;20139;-80
2021/08/12 09:03:41;;;;;;;9.70;5.13;;;;;;;25.32;53.00;100808.50;4944781;29;20051;-81
2021/08/12 09:06:09;;;;;;;8.57;5.38;;;;;;;25.56;53.44;100812.41;4939340;29;20087;-81
2021/08/12 09:08:40;;;;;;;11.80;5.97;;;;;;;25.72;52.65;100798.97;4920920;29;20052;-81
2021/08/12 09:11:07;;;;;;;9.80;5.47;;;;;;;25.84;51.68;100803.13;4922686;29;20056;-80
2021/08/12 09:13:37;;;;;;;9.00;5.50;;;;;;;25.88;51.24;100798.22;4923931;29;20057;-81
2021/08/12 09:16:34;;;;;;;8.15;5.43;;;;;;;25.86;51.09;100796.53;4917890;29;20045;-81
2021/08/12 09:19:21;;;;;;;8.73;5.35;;;;;;;25.89;51.38;100803.50;4920830;29;20077;-81
2021/08/12 09:21:56;;;;;;;6.50;5.00;;;;;;;25.99;51.96;100793.38;4936355;29;20252;-81
2021/08/12 09:24:23;;;;;;;8.10;5.95;;;;;;;26.06;51.03;100789.00;4938740;29;20166;-81
2021/08/12 09:26:54;;;;;;;10.90;5.85;;;;;;;26.02;51.10;100782.19;4937947;29;20049;-81
2021/08/12 09:29:30;;;;;;;9.02;5.15;;;;;;;26.08;51.80;100789.69;4924393;29;20525;-81
2021/08/12 09:32:03;;;;;;;8.60;5.40;;;;;;;25.97;51.14;100795.41;4922631;29;20051;-82
2021/08/12 09:34:47;;;;;;;8.70;5.85;;;;;;;25.93;50.94;100788.59;4921014;29;20080;-81
2021/08/12 09:37:14;;;;;;;12.93;6.30;;;;;;;25.95;51.03;100797.44;4917395;29;20059;-81
2021/08/12 09:39:43;;;;;;;7.70;5.50;;;;;;;25.96;51.41;100792.88;4919382;29;20127;-81
2021/08/12 09:42:13;;;;;;;11.13;5.75;;;;;;;26.04;51.33;100791.03;4921083;29;20052;-81
2021/08/12 09:44:43;;;;;;;9.88;5.40;;;;;;;26.19;51.01;100794.81;4918731;29;20048;-81
2021/08/12 09:47:15;;;;;;;14.85;6.55;;;;;;;26.25;50.55;100790.63;4919325;29;20048;-81
2021/08/12 09:49:52;;;;;;;12.73;5.47;;;;;;;26.28;51.62;100789.44;4920940;29;20048;-81
2021/08/12 09:52:47;;;;;;;10.32;5.47;;;;;;;26.20;50.91;100798.41;4930765;29;20119;-81
2021/08/12 09:55:20;;;;;;;16.80;6.07;;;;;;;26.24;51.87;100793.50;4942669;29;20103;-81
2021/08/12 09:57:53;;;;;;;9.75;5.47;;;;;;;26.31;51.26;100795.41;4946451;28;20067;-81
2021/08/12 10:00:21;;;;;;;10.35;5.38;;;;;;;26.42;51.08;100799.72;4946291;29;20048;-81
2021/08/12 10:02:50;;;;;;;13.02;5.82;;;;;;;26.44;49.60;100798.53;4933627;29;20051;-81
2021/08/12 10:05:18;;;;;;;12.18;6.00;;;;;;;26.41;49.83;100792.56;4928732;29;20103;-81
2021/08/12 10:07:45;;;;;;;8.70;6.22;;;;;;;26.42;51.00;100791.56;4925040;29;20062;-81
2021/08/12 10:10:18;;;;;;;11.65;6.10;;;;;;;26.40;50.86;100790.88;4923748;29;20052;-81
2021/08/12 10:12:55;;;;;;;9.63;5.53;;;;;;;26.43;50.96;100793.25;4933053;29;20052;-81
2021/08/12 10:15:34;;;;;;;7.78;5.03;;;;;;;26.56;50.30;100785.50;4921535;29;20048;-80
2021/08/12 10:18:05;;;;;;;7.10;5.50;;;;;;;26.67;50.05;100787.88;4920355;29;20052;-81
2021/08/12 10:20:36;;;;;;;9.13;5.15;;;;;;;26.81;49.84;100789.94;4944481;29;20063;-80
2021/08/12 10:23:05;;;;;;;12.00;5.70;;;;;;;26.87;49.82;100789.28;4942717;29;20079;-81
2021/08/12 10:25:34;;;;;;;10.25;5.88;;;;;;;26.90;50.15;100780.81;4920322;29;20488;-81
2021/08/12 10:28:05;;;;;;;9.00;4.95;;;;;;;26.99;49.78;100772.69;4937908;29;20050;-81
2021/08/12 10:30:41;;;;;;;8.02;5.43;;;;;;;27.21;49.32;100775.59;4944649;29;20075;-81
2021/08/12 10:33:11;;;;;;;9.50;6.00;;;;;;;27.40;49.05;100774.34;4936930;29;20111;-81
2021/08/12 10:35:37;;;;;;;;;;;;;;;27.50;47.72;100785.06;4932049;29;20175;-81
2021/08/12 10:38:05;;;;;;;8.32;5.10;;;;;;;27.40;48.40;100774.34;4927847;29;19961;-81
2021/08/12 10:40:37;;;;;;;6.85;4.78;;;;;;;27.43;48.51;100776.75;4925856;29;20557;-81
2021/08/12 10:43:08;;;;;;;6.80;4.55;;;;;;;27.50;48.45;100775.03;4939716;29;20047;-81
2021/08/12 10:45:35;;;;;;;7.53;5.28;;;;;;;27.51;48.01;100765.88;4937012;29;20042;-81
2021/08/12 10:48:03;;;;;;;7.80;5.38;;;;;;;27.50;47.85;100766.88;4928921;29;20139;-82
2021/08/12 10:51:20;;;;;;;7.63;5.45;;;;;;;27.41;48.24;100778.78;4926987;29;20054;-81
2021/08/12 10:54:17;;;;;;;9.63;5.45;;;;;;;27.31;47.79;100775.41;4938567;29;20108;-81
2021/08/12 10:56:43;;;;;;;6.18;4.70;;;;;;;27.36;48.73;100778.47;4928099;29;20070;-81
2021/08/12 10:59:10;;;;;;;7.00;5.13;;;;;;;27.42;48.89;100771.47;4913891;29;20040;-81
2021/08/12 11:01:40;;;;;;;8.63;5.25;;;;;;;27.43;48.39;100765.00;4940535;29;20047;-82
2021/08/12 11:04:08;;;;;;;9.63;4.63;;;;;;;27.44;48.65;100766.72;4937945;29;20036;-81
2021/08/12 11:06:40;;;;;;;9.88;5.38;;;;;;;27.49;49.03;100761.63;4934782;29;20058;-81
2021/08/12 11:09:09;;;;;;;5.60;4.55;;;;;;;27.50;48.76;100772.31;4925228;29;20043;-81
2021/08/12 11:11:39;;;;;;;9.65;5.80;;;;;;;27.53;48.08;100765.69;4919982;29;20055;-81
2021/08/12 11:14:10;;;;;;;7.70;5.50;;;;;;;27.49;47.44;100762.47;4921490;29;20076;-81
2021/08/12 11:16:45;;;;;;;6.43;4.93;;;;;;;27.49;48.02;100762.47;4919931;29;20139;-81
2021/08/12 11:19:21;;;;;;;6.32;5.00;;;;;;;27.52;48.26;100767.56;4930486;29;20044;-81
2021/08/12 11:21:48;;;;;;;7.20;4.85;;;;;;;27.58;48.56;100768.75;4927287;29;20082;-81
2021/08/12 11:24:24;;;;;;;7.65;4.90;;;;;;;27.65;47.68;100767.06;4928396;29;20051;-81
2021/08/12 11:26:51;;;;;;;9.23;5.45;;;;;;;27.73;47.09;100760.72;4936851;29;20036;-80
2021/08/12 11:29:30;;;;;;;11.23;5.72;;;;;;;27.73;47.25;100752.56;4937237;29;20079;-81
2021/08/12 11:32:13;;;;;;;10.10;6.07;;;;;;;27.68;47.66;100757.69;4923924;29;20055;-80
2021/08/12 11:34:52;;;;;;;8.98;5.93;;;;;;;27.61;48.30;100754.81;4917956;29;20075;-80
2021/08/12 11:37:28;;;;;;;8.52;5.72;;;;;;;27.61;48.02;100753.97;4923648;29;20056;-81